sensor_id;sensor_type;location;lat;lon;timestamp;P1;durP1;ratioP1;P2;durP2;ratioP2
46777;SDS011;32536;47.128;8.746;2023-06-22T00:01:20;3.47;;;1.05;;
46777;SDS011;32536;47.128;8.746;2023-06-22T00:03:50;3.30;;;1.42;;
46777;SDS011;32536;47.128;8.746;2023-06-22T00:06:17;3.22;;;1.77;;
46777;SDS011;32536;47.128;8.746;2023-06-22T00:08:44;4.32;;;1.52;;
46777;SDS011;32536;47.128;8.746;2023-06-22T00:11:11;5.22;;;1.65;;
46777;SDS011;32536;47.128;8.746;2023-06-22T00:13:38;4.93;;;1.58;;
46777;SDS011;32536;47.128;8.746;2023-06-22T00:16:05;2.60;;;1.75;;
46777;SDS011;32536;47.128;8.746;2023-06-22T00:18:32;4.38;;;2.17;;
46777;SDS011;32536;47.128;8.746;2023-06-22T00:20:59;2.50;;;1.42;;
46777;SDS011;32536;47.128;8.746;2023-06-22T00:23:26;4.25;;;1.63;;
46777;SDS011;32536;47.128;8.746;2023-06-22T00:25:53;4.28;;;1.23;;
46777;SDS011;32536;47.128;8.746;2023-06-22T00:28:19;2.70;;;1.08;;
46777;SDS011;32536;47.128;8.746;2023-06-22T00:30:47;3.25;;;1.13;;
46777;SDS011;32536;47.128;8.746;2023-06-22T00:33:15;2.72;;;1.10;;
46777;SDS011;32536;47.128;8.746;2023-06-22T00:35:42;3.03;;;1.92;;
46777;SDS011;32536;47.128;8.746;2023-06-22T00:38:08;4.05;;;1.40;;
46777;SDS011;32536;47.128;8.746;2023-06-22T00:40:35;5.35;;;1.80;;
46777;SDS011;32536;47.128;8.746;2023-06-22T00:43:02;4.22;;;2.45;;
46777;SDS011;32536;47.128;8.746;2023-06-22T00:45:30;3.25;;;1.52;;
46777;SDS011;32536;47.128;8.746;2023-06-22T00:47:57;2.92;;;1.15;;
46777;SDS011;32536;47.128;8.746;2023-06-22T00:50:28;3.63;;;1.73;;
46777;SDS011;32536;47.128;8.746;2023-06-22T00:53:05;2.70;;;1.17;;
46777;SDS011;32536;47.128;8.746;2023-06-22T00:55:37;3.60;;;1.13;;
46777;SDS011;32536;47.128;8.746;2023-06-22T00:58:17;3.42;;;1.50;;
46777;SDS011;32536;47.128;8.746;2023-06-22T01:00:47;3.47;;;1.73;;
46777;SDS011;32536;47.128;8.746;2023-06-22T01:03:14;3.88;;;1.48;;
46777;SDS011;32536;47.128;8.746;2023-06-22T01:05:42;3.90;;;1.17;;
46777;SDS011;32536;47.128;8.746;2023-06-22T01:08:16;4.18;;;1.90;;
46777;SDS011;32536;47.128;8.746;2023-06-22T01:13:50;3.90;;;1.77;;
46777;SDS011;32536;47.128;8.746;2023-06-22T01:16:33;5.78;;;2.00;;
46777;SDS011;32536;47.128;8.746;2023-06-22T01:21:54;3.55;;;1.17;;
46777;SDS011;32536;47.128;8.746;2023-06-22T01:24:23;5.47;;;2.08;;
46777;SDS011;32536;47.128;8.746;2023-06-22T01:27:09;4.30;;;1.30;;
46777;SDS011;32536;47.128;8.746;2023-06-22T01:30:07;3.97;;;1.98;;
46777;SDS011;32536;47.128;8.746;2023-06-22T01:32:36;4.88;;;2.47;;
46777;SDS011;32536;47.128;8.746;2023-06-22T01:35:05;7.32;;;2.22;;
46777;SDS011;32536;47.128;8.746;2023-06-22T01:37:34;5.75;;;2.90;;
46777;SDS011;32536;47.128;8.746;2023-06-22T01:40:04;9.05;;;1.95;;
46777;SDS011;32536;47.128;8.746;2023-06-22T01:42:34;4.85;;;2.42;;
46777;SDS011;32536;47.128;8.746;2023-06-22T01:45:03;5.05;;;2.03;;
46777;SDS011;32536;47.128;8.746;2023-06-22T01:47:31;5.82;;;2.33;;
46777;SDS011;32536;47.128;8.746;2023-06-22T01:49:58;6.15;;;3.30;;
46777;SDS011;32536;47.128;8.746;2023-06-22T01:52:43;5.40;;;2.15;;
46777;SDS011;32536;47.128;8.746;2023-06-22T01:55:10;4.30;;;1.73;;
46777;SDS011;32536;47.128;8.746;2023-06-22T01:57:37;5.13;;;1.80;;
46777;SDS011;32536;47.128;8.746;2023-06-22T02:00:05;4.82;;;2.22;;
46777;SDS011;32536;47.128;8.746;2023-06-22T02:05:33;5.05;;;1.95;;
46777;SDS011;32536;47.128;8.746;2023-06-22T02:08:11;4.05;;;1.20;;
46777;SDS011;32536;47.128;8.746;2023-06-22T02:10:48;4.78;;;2.10;;
46777;SDS011;32536;47.128;8.746;2023-06-22T02:13:17;4.70;;;1.50;;
46777;SDS011;32536;47.128;8.746;2023-06-22T02:15:45;4.53;;;1.85;;
46777;SDS011;32536;47.128;8.746;2023-06-22T02:18:13;4.82;;;1.60;;
46777;SDS011;32536;47.128;8.746;2023-06-22T02:20:40;3.00;;;1.00;;
46777;SDS011;32536;47.128;8.746;2023-06-22T02:23:07;3.85;;;2.08;;
46777;SDS011;32536;47.128;8.746;2023-06-22T02:25:34;3.83;;;1.10;;
46777;SDS011;32536;47.128;8.746;2023-06-22T02:28:02;5.05;;;1.63;;
46777;SDS011;32536;47.128;8.746;2023-06-22T02:30:29;4.20;;;2.13;;
46777;SDS011;32536;47.128;8.746;2023-06-22T02:32:57;4.65;;;1.85;;
46777;SDS011;32536;47.128;8.746;2023-06-22T02:35:27;2.58;;;0.90;;
46777;SDS011;32536;47.128;8.746;2023-06-22T02:37:58;5.47;;;1.80;;
46777;SDS011;32536;47.128;8.746;2023-06-22T02:40:26;4.45;;;1.15;;
46777;SDS011;32536;47.128;8.746;2023-06-22T02:42:55;4.32;;;1.25;;
46777;SDS011;32536;47.128;8.746;2023-06-22T02:45:27;4.03;;;0.95;;
46777;SDS011;32536;47.128;8.746;2023-06-22T02:47:55;3.60;;;1.08;;
46777;SDS011;32536;47.128;8.746;2023-06-22T02:50:22;4.82;;;1.30;;
46777;SDS011;32536;47.128;8.746;2023-06-22T02:52:49;3.97;;;2.35;;
46777;SDS011;32536;47.128;8.746;2023-06-22T02:55:15;6.82;;;1.65;;
46777;SDS011;32536;47.128;8.746;2023-06-22T02:57:42;4.65;;;1.77;;
46777;SDS011;32536;47.128;8.746;2023-06-22T03:00:11;5.38;;;2.50;;
46777;SDS011;32536;47.128;8.746;2023-06-22T03:02:48;4.97;;;2.22;;
46777;SDS011;32536;47.128;8.746;2023-06-22T03:05:15;6.80;;;3.00;;
46777;SDS011;32536;47.128;8.746;2023-06-22T03:07:44;4.70;;;2.13;;
46777;SDS011;32536;47.128;8.746;2023-06-22T03:10:11;5.57;;;2.17;;
46777;SDS011;32536;47.128;8.746;2023-06-22T03:12:39;5.10;;;1.50;;
46777;SDS011;32536;47.128;8.746;2023-06-22T03:15:09;8.05;;;3.30;;
46777;SDS011;32536;47.128;8.746;2023-06-22T03:17:38;6.05;;;1.63;;
46777;SDS011;32536;47.128;8.746;2023-06-22T03:20:06;5.13;;;2.05;;
46777;SDS011;32536;47.128;8.746;2023-06-22T03:22:37;4.57;;;2.00;;
46777;SDS011;32536;47.128;8.746;2023-06-22T03:25:06;4.80;;;1.90;;
46777;SDS011;32536;47.128;8.746;2023-06-22T03:27:38;3.92;;;1.20;;
46777;SDS011;32536;47.128;8.746;2023-06-22T03:30:06;3.67;;;1.48;;
46777;SDS011;32536;47.128;8.746;2023-06-22T03:32:36;4.57;;;2.25;;
46777;SDS011;32536;47.128;8.746;2023-06-22T03:35:02;4.10;;;1.30;;
46777;SDS011;32536;47.128;8.746;2023-06-22T03:37:29;3.65;;;0.95;;
46777;SDS011;32536;47.128;8.746;2023-06-22T03:39:56;2.60;;;1.48;;
46777;SDS011;32536;47.128;8.746;2023-06-22T03:42:23;3.72;;;1.35;;
46777;SDS011;32536;47.128;8.746;2023-06-22T03:44:49;3.17;;;0.90;;
46777;SDS011;32536;47.128;8.746;2023-06-22T03:47:16;4.05;;;1.55;;
46777;SDS011;32536;47.128;8.746;2023-06-22T03:49:43;3.33;;;1.77;;
46777;SDS011;32536;47.128;8.746;2023-06-22T03:52:10;3.25;;;1.50;;
46777;SDS011;32536;47.128;8.746;2023-06-22T03:54:37;3.88;;;1.10;;
46777;SDS011;32536;47.128;8.746;2023-06-22T03:57:03;5.05;;;1.83;;
46777;SDS011;32536;47.128;8.746;2023-06-22T03:59:31;4.30;;;1.30;;
46777;SDS011;32536;47.128;8.746;2023-06-22T04:01:58;3.72;;;1.75;;
46777;SDS011;32536;47.128;8.746;2023-06-22T04:04:24;3.22;;;2.05;;
46777;SDS011;32536;47.128;8.746;2023-06-22T04:06:51;3.72;;;1.10;;
46777;SDS011;32536;47.128;8.746;2023-06-22T04:09:18;3.30;;;1.30;;
46777;SDS011;32536;47.128;8.746;2023-06-22T04:11:45;6.80;;;2.25;;
46777;SDS011;32536;47.128;8.746;2023-06-22T04:14:11;3.83;;;1.77;;
46777;SDS011;32536;47.128;8.746;2023-06-22T04:16:38;2.70;;;1.15;;
46777;SDS011;32536;47.128;8.746;2023-06-22T04:19:05;3.83;;;1.73;;
46777;SDS011;32536;47.128;8.746;2023-06-22T04:21:31;5.57;;;2.17;;
46777;SDS011;32536;47.128;8.746;2023-06-22T04:23:58;6.07;;;1.83;;
46777;SDS011;32536;47.128;8.746;2023-06-22T04:26:25;7.15;;;1.60;;
46777;SDS011;32536;47.128;8.746;2023-06-22T04:28:52;5.30;;;1.73;;
46777;SDS011;32536;47.128;8.746;2023-06-22T04:31:21;4.43;;;1.45;;
46777;SDS011;32536;47.128;8.746;2023-06-22T04:33:57;5.97;;;2.50;;
46777;SDS011;32536;47.128;8.746;2023-06-22T04:36:35;3.97;;;1.70;;
46777;SDS011;32536;47.128;8.746;2023-06-22T04:39:07;4.97;;;1.98;;
46777;SDS011;32536;47.128;8.746;2023-06-22T04:41:36;3.67;;;1.33;;
46777;SDS011;32536;47.128;8.746;2023-06-22T04:44:14;5.07;;;1.77;;
46777;SDS011;32536;47.128;8.746;2023-06-22T04:46:52;2.58;;;1.30;;
46777;SDS011;32536;47.128;8.746;2023-06-22T04:49:34;3.08;;;1.52;;
46777;SDS011;32536;47.128;8.746;2023-06-22T04:52:10;4.18;;;1.25;;
46777;SDS011;32536;47.128;8.746;2023-06-22T04:54:39;3.35;;;1.10;;
46777;SDS011;32536;47.128;8.746;2023-06-22T04:57:13;5.82;;;2.85;;
46777;SDS011;32536;47.128;8.746;2023-06-22T04:59:40;4.97;;;2.28;;
46777;SDS011;32536;47.128;8.746;2023-06-22T05:02:08;4.55;;;1.48;;
46777;SDS011;32536;47.128;8.746;2023-06-22T05:04:35;3.15;;;1.30;;
46777;SDS011;32536;47.128;8.746;2023-06-22T05:07:04;4.50;;;1.75;;
46777;SDS011;32536;47.128;8.746;2023-06-22T05:09:31;3.75;;;1.00;;
46777;SDS011;32536;47.128;8.746;2023-06-22T05:11:59;3.88;;;1.58;;
46777;SDS011;32536;47.128;8.746;2023-06-22T05:14:28;4.15;;;1.90;;
46777;SDS011;32536;47.128;8.746;2023-06-22T05:16:56;6.25;;;1.45;;
46777;SDS011;32536;47.128;8.746;2023-06-22T05:19:29;3.60;;;0.95;;
46777;SDS011;32536;47.128;8.746;2023-06-22T05:21:59;4.82;;;1.67;;
46777;SDS011;32536;47.128;8.746;2023-06-22T05:24:25;4.03;;;1.20;;
46777;SDS011;32536;47.128;8.746;2023-06-22T05:26:52;6.72;;;2.15;;
46777;SDS011;32536;47.128;8.746;2023-06-22T05:29:19;4.97;;;2.45;;
46777;SDS011;32536;47.128;8.746;2023-06-22T05:31:47;5.70;;;2.92;;
46777;SDS011;32536;47.128;8.746;2023-06-22T05:34:15;3.53;;;2.13;;
46777;SDS011;32536;47.128;8.746;2023-06-22T05:36:41;5.45;;;2.40;;
46777;SDS011;32536;47.128;8.746;2023-06-22T05:39:12;6.15;;;2.42;;
46777;SDS011;32536;47.128;8.746;2023-06-22T05:44:08;4.43;;;1.25;;
46777;SDS011;32536;47.128;8.746;2023-06-22T05:46:35;3.75;;;1.52;;
46777;SDS011;32536;47.128;8.746;2023-06-22T05:49:02;4.95;;;1.15;;
46777;SDS011;32536;47.128;8.746;2023-06-22T05:51:29;3.58;;;1.73;;
46777;SDS011;32536;47.128;8.746;2023-06-22T05:53:55;3.63;;;1.63;;
46777;SDS011;32536;47.128;8.746;2023-06-22T05:56:22;4.75;;;1.70;;
46777;SDS011;32536;47.128;8.746;2023-06-22T05:58:49;9.82;;;2.70;;
46777;SDS011;32536;47.128;8.746;2023-06-22T06:01:15;4.70;;;2.00;;
46777;SDS011;32536;47.128;8.746;2023-06-22T06:03:42;5.00;;;1.58;;
46777;SDS011;32536;47.128;8.746;2023-06-22T06:06:09;4.03;;;1.38;;
46777;SDS011;32536;47.128;8.746;2023-06-22T06:08:39;5.03;;;1.98;;
46777;SDS011;32536;47.128;8.746;2023-06-22T06:11:06;4.97;;;1.60;;
46777;SDS011;32536;47.128;8.746;2023-06-22T06:13:33;5.57;;;2.90;;
46777;SDS011;32536;47.128;8.746;2023-06-22T06:15:59;4.32;;;1.48;;
46777;SDS011;32536;47.128;8.746;2023-06-22T06:18:26;5.25;;;1.00;;
46777;SDS011;32536;47.128;8.746;2023-06-22T06:20:53;3.67;;;1.50;;
46777;SDS011;32536;47.128;8.746;2023-06-22T06:23:20;3.38;;;1.88;;
46777;SDS011;32536;47.128;8.746;2023-06-22T06:25:46;3.72;;;1.08;;
46777;SDS011;32536;47.128;8.746;2023-06-22T06:28:13;4.28;;;1.33;;
46777;SDS011;32536;47.128;8.746;2023-06-22T06:30:40;2.80;;;0.95;;
46777;SDS011;32536;47.128;8.746;2023-06-22T06:33:06;4.65;;;2.05;;
46777;SDS011;32536;47.128;8.746;2023-06-22T06:35:34;3.58;;;1.10;;
46777;SDS011;32536;47.128;8.746;2023-06-22T06:38:01;4.80;;;1.50;;
46777;SDS011;32536;47.128;8.746;2023-06-22T06:40:28;4.43;;;1.27;;
46777;SDS011;32536;47.128;8.746;2023-06-22T06:42:55;4.05;;;1.98;;
46777;SDS011;32536;47.128;8.746;2023-06-22T06:45:22;5.55;;;1.58;;
46777;SDS011;32536;47.128;8.746;2023-06-22T06:47:51;5.07;;;1.70;;
46777;SDS011;32536;47.128;8.746;2023-06-22T06:50:18;3.63;;;1.42;;
46777;SDS011;32536;47.128;8.746;2023-06-22T06:53:02;3.83;;;1.55;;
46777;SDS011;32536;47.128;8.746;2023-06-22T06:55:28;3.28;;;1.20;;
46777;SDS011;32536;47.128;8.746;2023-06-22T06:57:58;3.75;;;1.17;;
46777;SDS011;32536;47.128;8.746;2023-06-22T07:00:25;5.55;;;1.35;;
46777;SDS011;32536;47.128;8.746;2023-06-22T07:02:52;4.75;;;1.45;;
46777;SDS011;32536;47.128;8.746;2023-06-22T07:05:19;3.80;;;1.30;;
46777;SDS011;32536;47.128;8.746;2023-06-22T07:07:45;5.47;;;1.85;;
46777;SDS011;32536;47.128;8.746;2023-06-22T07:10:12;5.07;;;1.25;;
46777;SDS011;32536;47.128;8.746;2023-06-22T07:12:40;4.13;;;1.58;;
46777;SDS011;32536;47.128;8.746;2023-06-22T07:15:08;3.92;;;1.10;;
46777;SDS011;32536;47.128;8.746;2023-06-22T07:17:36;3.70;;;1.13;;
46777;SDS011;32536;47.128;8.746;2023-06-22T07:20:04;6.20;;;1.90;;
46777;SDS011;32536;47.128;8.746;2023-06-22T07:22:36;4.13;;;1.30;;
46777;SDS011;32536;47.128;8.746;2023-06-22T07:25:06;5.18;;;2.17;;
46777;SDS011;32536;47.128;8.746;2023-06-22T07:27:36;4.90;;;2.47;;
46777;SDS011;32536;47.128;8.746;2023-06-22T07:30:05;3.58;;;1.52;;
46777;SDS011;32536;47.128;8.746;2023-06-22T07:32:32;5.20;;;1.75;;
46777;SDS011;32536;47.128;8.746;2023-06-22T07:34:59;8.85;;;2.95;;
46777;SDS011;32536;47.128;8.746;2023-06-22T07:37:27;9.98;;;4.45;;
46777;SDS011;32536;47.128;8.746;2023-06-22T07:39:55;8.90;;;3.63;;
46777;SDS011;32536;47.128;8.746;2023-06-22T07:42:25;8.02;;;3.67;;
46777;SDS011;32536;47.128;8.746;2023-06-22T07:44:53;11.50;;;4.63;;
46777;SDS011;32536;47.128;8.746;2023-06-22T07:47:20;13.63;;;6.32;;
46777;SDS011;32536;47.128;8.746;2023-06-22T07:49:50;16.08;;;6.80;;
46777;SDS011;32536;47.128;8.746;2023-06-22T07:52:20;13.32;;;5.65;;
46777;SDS011;32536;47.128;8.746;2023-06-22T07:54:47;16.65;;;6.78;;
46777;SDS011;32536;47.128;8.746;2023-06-22T07:57:13;9.20;;;4.68;;
46777;SDS011;32536;47.128;8.746;2023-06-22T07:59:40;20.83;;;8.35;;
46777;SDS011;32536;47.128;8.746;2023-06-22T08:02:07;14.93;;;7.30;;
46777;SDS011;32536;47.128;8.746;2023-06-22T08:04:34;11.32;;;5.95;;
46777;SDS011;32536;47.128;8.746;2023-06-22T08:07:02;9.73;;;5.55;;
46777;SDS011;32536;47.128;8.746;2023-06-22T08:09:30;7.70;;;3.15;;
46777;SDS011;32536;47.128;8.746;2023-06-22T08:12:00;7.20;;;2.75;;
46777;SDS011;32536;47.128;8.746;2023-06-22T08:14:27;6.63;;;2.78;;
46777;SDS011;32536;47.128;8.746;2023-06-22T08:16:55;6.88;;;3.25;;
46777;SDS011;32536;47.128;8.746;2023-06-22T08:19:22;7.60;;;2.80;;
46777;SDS011;32536;47.128;8.746;2023-06-22T08:21:49;16.67;;;4.45;;
46777;SDS011;32536;47.128;8.746;2023-06-22T08:24:16;7.43;;;3.08;;
46777;SDS011;32536;47.128;8.746;2023-06-22T08:26:42;6.50;;;3.20;;
46777;SDS011;32536;47.128;8.746;2023-06-22T08:29:09;6.97;;;2.60;;
46777;SDS011;32536;47.128;8.746;2023-06-22T08:31:36;4.72;;;2.42;;
46777;SDS011;32536;47.128;8.746;2023-06-22T08:34:03;7.68;;;2.40;;
46777;SDS011;32536;47.128;8.746;2023-06-22T08:36:29;4.85;;;1.58;;
46777;SDS011;32536;47.128;8.746;2023-06-22T08:39:03;4.50;;;1.40;;
46777;SDS011;32536;47.128;8.746;2023-06-22T08:41:30;4.72;;;1.42;;
46777;SDS011;32536;47.128;8.746;2023-06-22T08:43:57;3.50;;;1.75;;
46777;SDS011;32536;47.128;8.746;2023-06-22T08:46:23;4.78;;;1.30;;
46777;SDS011;32536;47.128;8.746;2023-06-22T08:48:56;5.53;;;2.10;;
46777;SDS011;32536;47.128;8.746;2023-06-22T08:51:26;4.85;;;2.17;;
46777;SDS011;32536;47.128;8.746;2023-06-22T08:53:54;6.70;;;1.83;;
46777;SDS011;32536;47.128;8.746;2023-06-22T08:56:20;4.95;;;1.52;;
46777;SDS011;32536;47.128;8.746;2023-06-22T08:58:47;6.13;;;1.50;;
46777;SDS011;32536;47.128;8.746;2023-06-22T09:01:14;4.25;;;1.73;;
46777;SDS011;32536;47.128;8.746;2023-06-22T09:03:41;4.40;;;1.23;;
46777;SDS011;32536;47.128;8.746;2023-06-22T09:06:08;3.50;;;1.20;;
46777;SDS011;32536;47.128;8.746;2023-06-22T09:08:35;3.15;;;1.17;;
46777;SDS011;32536;47.128;8.746;2023-06-22T09:11:02;4.78;;;1.83;;
46777;SDS011;32536;47.128;8.746;2023-06-22T09:13:30;4.55;;;1.83;;
46777;SDS011;32536;47.128;8.746;2023-06-22T09:15:58;5.03;;;1.80;;
46777;SDS011;32536;47.128;8.746;2023-06-22T09:18:25;6.70;;;2.08;;
46777;SDS011;32536;47.128;8.746;2023-06-22T09:20:52;5.03;;;1.77;;
46777;SDS011;32536;47.128;8.746;2023-06-22T09:23:19;5.07;;;2.92;;
46777;SDS011;32536;47.128;8.746;2023-06-22T09:25:46;5.97;;;3.17;;
46777;SDS011;32536;47.128;8.746;2023-06-22T09:28:13;4.40;;;2.03;;
46777;SDS011;32536;47.128;8.746;2023-06-22T09:30:42;5.15;;;1.58;;
46777;SDS011;32536;47.128;8.746;2023-06-22T09:33:10;4.88;;;1.25;;
46777;SDS011;32536;47.128;8.746;2023-06-22T09:35:37;2.45;;;1.00;;
46777;SDS011;32536;47.128;8.746;2023-06-22T09:38:03;4.70;;;1.50;;
46777;SDS011;32536;47.128;8.746;2023-06-22T09:40:30;3.70;;;1.27;;
46777;SDS011;32536;47.128;8.746;2023-06-22T09:43:01;3.38;;;1.27;;
46777;SDS011;32536;47.128;8.746;2023-06-22T09:45:27;3.13;;;0.98;;
46777;SDS011;32536;47.128;8.746;2023-06-22T09:47:54;4.32;;;1.40;;
46777;SDS011;32536;47.128;8.746;2023-06-22T09:50:21;5.32;;;1.15;;
46777;SDS011;32536;47.128;8.746;2023-06-22T09:55:39;3.20;;;1.40;;
46777;SDS011;32536;47.128;8.746;2023-06-22T09:58:06;3.90;;;1.08;;
46777;SDS011;32536;47.128;8.746;2023-06-22T10:00:32;2.97;;;1.30;;
46777;SDS011;32536;47.128;8.746;2023-06-22T10:02:59;4.57;;;1.05;;
46777;SDS011;32536;47.128;8.746;2023-06-22T10:05:26;6.25;;;1.73;;
46777;SDS011;32536;47.128;8.746;2023-06-22T10:07:52;4.35;;;1.25;;
46777;SDS011;32536;47.128;8.746;2023-06-22T10:10:19;3.97;;;1.35;;
46777;SDS011;32536;47.128;8.746;2023-06-22T10:12:47;6.78;;;1.60;;
46777;SDS011;32536;47.128;8.746;2023-06-22T10:15:21;6.05;;;1.77;;
46777;SDS011;32536;47.128;8.746;2023-06-22T10:17:48;5.68;;;2.53;;
46777;SDS011;32536;47.128;8.746;2023-06-22T10:20:15;4.40;;;1.33;;
46777;SDS011;32536;47.128;8.746;2023-06-22T10:22:44;5.45;;;1.92;;
46777;SDS011;32536;47.128;8.746;2023-06-22T10:25:12;5.22;;;1.52;;
46777;SDS011;32536;47.128;8.746;2023-06-22T10:27:39;5.22;;;1.08;;
46777;SDS011;32536;47.128;8.746;2023-06-22T10:30:09;4.50;;;1.33;;
46777;SDS011;32536;47.128;8.746;2023-06-22T10:32:38;4.20;;;1.38;;
46777;SDS011;32536;47.128;8.746;2023-06-22T10:35:07;5.00;;;1.63;;
46777;SDS011;32536;47.128;8.746;2023-06-22T10:37:34;5.72;;;1.77;;
46777;SDS011;32536;47.128;8.746;2023-06-22T10:40:00;3.60;;;1.20;;
46777;SDS011;32536;47.128;8.746;2023-06-22T10:42:29;3.88;;;1.30;;
46777;SDS011;32536;47.128;8.746;2023-06-22T10:44:55;4.97;;;1.30;;
46777;SDS011;32536;47.128;8.746;2023-06-22T10:47:22;4.82;;;1.63;;
46777;SDS011;32536;47.128;8.746;2023-06-22T10:49:49;5.28;;;1.23;;
46777;SDS011;32536;47.128;8.746;2023-06-22T10:52:15;4.32;;;1.60;;
46777;SDS011;32536;47.128;8.746;2023-06-22T10:55:00;4.18;;;1.38;;
46777;SDS011;32536;47.128;8.746;2023-06-22T10:57:27;3.75;;;1.30;;
46777;SDS011;32536;47.128;8.746;2023-06-22T10:59:54;3.95;;;0.80;;
46777;SDS011;32536;47.128;8.746;2023-06-22T11:02:21;2.15;;;0.90;;
46777;SDS011;32536;47.128;8.746;2023-06-22T11:04:47;4.47;;;1.83;;
46777;SDS011;32536;47.128;8.746;2023-06-22T11:07:15;3.13;;;1.42;;
46777;SDS011;32536;47.128;8.746;2023-06-22T11:09:43;5.13;;;1.50;;
46777;SDS011;32536;47.128;8.746;2023-06-22T11:12:10;3.72;;;1.00;;
46777;SDS011;32536;47.128;8.746;2023-06-22T11:14:37;4.10;;;0.90;;
46777;SDS011;32536;47.128;8.746;2023-06-22T11:17:05;4.05;;;0.93;;
46777;SDS011;32536;47.128;8.746;2023-06-22T11:19:32;4.18;;;1.15;;
46777;SDS011;32536;47.128;8.746;2023-06-22T11:21:59;1.85;;;0.63;;
46777;SDS011;32536;47.128;8.746;2023-06-22T11:24:25;4.28;;;1.48;;
46777;SDS011;32536;47.128;8.746;2023-06-22T11:26:52;4.68;;;0.80;;
46777;SDS011;32536;47.128;8.746;2023-06-22T11:29:19;5.72;;;1.55;;
46777;SDS011;32536;47.128;8.746;2023-06-22T11:31:45;7.75;;;1.23;;
46777;SDS011;32536;47.128;8.746;2023-06-22T11:34:12;3.67;;;1.63;;
46777;SDS011;32536;47.128;8.746;2023-06-22T11:36:39;3.53;;;0.93;;
46777;SDS011;32536;47.128;8.746;2023-06-22T11:39:07;5.35;;;1.10;;
46777;SDS011;32536;47.128;8.746;2023-06-22T11:41:35;4.80;;;1.70;;
46777;SDS011;32536;47.128;8.746;2023-06-22T11:44:02;2.72;;;0.80;;
46777;SDS011;32536;47.128;8.746;2023-06-22T11:46:30;4.88;;;1.25;;
46777;SDS011;32536;47.128;8.746;2023-06-22T11:48:57;6.05;;;1.80;;
46777;SDS011;32536;47.128;8.746;2023-06-22T11:51:24;3.95;;;1.10;;
46777;SDS011;32536;47.128;8.746;2023-06-22T11:53:51;4.72;;;1.27;;
46777;SDS011;32536;47.128;8.746;2023-06-22T11:56:17;5.95;;;1.15;;
46777;SDS011;32536;47.128;8.746;2023-06-22T11:58:44;4.22;;;1.13;;
46777;SDS011;32536;47.128;8.746;2023-06-22T12:01:11;5.22;;;1.15;;
46777;SDS011;32536;47.128;8.746;2023-06-22T12:03:41;4.45;;;1.50;;
46777;SDS011;32536;47.128;8.746;2023-06-22T12:06:09;4.75;;;1.08;;
46777;SDS011;32536;47.128;8.746;2023-06-22T12:08:37;5.35;;;1.67;;
46777;SDS011;32536;47.128;8.746;2023-06-22T12:11:03;6.63;;;2.42;;
46777;SDS011;32536;47.128;8.746;2023-06-22T12:16:15;4.90;;;2.17;;
46777;SDS011;32536;47.128;8.746;2023-06-22T12:18:42;8.43;;;2.58;;
46777;SDS011;32536;47.128;8.746;2023-06-22T12:21:09;8.35;;;2.78;;
46777;SDS011;32536;47.128;8.746;2023-06-22T12:23:35;6.70;;;2.20;;
46777;SDS011;32536;47.128;8.746;2023-06-22T12:26:02;8.52;;;3.03;;
46777;SDS011;32536;47.128;8.746;2023-06-22T12:28:29;7.53;;;2.60;;
46777;SDS011;32536;47.128;8.746;2023-06-22T12:30:56;4.57;;;1.92;;
46777;SDS011;32536;47.128;8.746;2023-06-22T12:33:22;5.15;;;1.80;;
46777;SDS011;32536;47.128;8.746;2023-06-22T12:35:49;6.22;;;1.92;;
46777;SDS011;32536;47.128;8.746;2023-06-22T12:38:16;5.22;;;2.00;;
46777;SDS011;32536;47.128;8.746;2023-06-22T12:40:42;8.20;;;2.72;;
46777;SDS011;32536;47.128;8.746;2023-06-22T12:43:09;7.47;;;3.20;;
46777;SDS011;32536;47.128;8.746;2023-06-22T12:45:36;4.03;;;1.67;;
46777;SDS011;32536;47.128;8.746;2023-06-22T12:48:03;6.22;;;1.42;;
46777;SDS011;32536;47.128;8.746;2023-06-22T12:50:30;6.75;;;2.03;;
46777;SDS011;32536;47.128;8.746;2023-06-22T12:55:52;4.30;;;1.23;;
46777;SDS011;32536;47.128;8.746;2023-06-22T12:58:19;6.70;;;2.33;;
46777;SDS011;32536;47.128;8.746;2023-06-22T13:00:46;3.58;;;1.20;;
46777;SDS011;32536;47.128;8.746;2023-06-22T13:03:13;5.38;;;2.50;;
46777;SDS011;32536;47.128;8.746;2023-06-22T13:05:39;5.55;;;2.53;;
46777;SDS011;32536;47.128;8.746;2023-06-22T13:08:06;5.07;;;1.73;;
46777;SDS011;32536;47.128;8.746;2023-06-22T13:10:33;6.25;;;1.60;;
46777;SDS011;32536;47.128;8.746;2023-06-22T13:13:00;6.68;;;2.58;;
46777;SDS011;32536;47.128;8.746;2023-06-22T13:15:27;7.85;;;2.90;;
46777;SDS011;32536;47.128;8.746;2023-06-22T13:17:55;7.28;;;3.53;;
46777;SDS011;32536;47.128;8.746;2023-06-22T13:20:21;7.70;;;3.10;;
46777;SDS011;32536;47.128;8.746;2023-06-22T13:22:48;9.07;;;2.20;;
46777;SDS011;32536;47.128;8.746;2023-06-22T13:25:15;6.78;;;2.90;;
46777;SDS011;32536;47.128;8.746;2023-06-22T13:27:44;5.30;;;1.73;;
46777;SDS011;32536;47.128;8.746;2023-06-22T13:30:11;8.30;;;2.67;;
46777;SDS011;32536;47.128;8.746;2023-06-22T13:32:40;5.10;;;2.15;;
46777;SDS011;32536;47.128;8.746;2023-06-22T13:35:08;4.13;;;1.67;;
46777;SDS011;32536;47.128;8.746;2023-06-22T13:37:38;8.45;;;3.40;;
46777;SDS011;32536;47.128;8.746;2023-06-22T13:40:05;7.10;;;3.47;;
46777;SDS011;32536;47.128;8.746;2023-06-22T13:42:33;6.28;;;2.55;;
46777;SDS011;32536;47.128;8.746;2023-06-22T13:45:00;6.47;;;2.83;;
46777;SDS011;32536;47.128;8.746;2023-06-22T13:47:27;7.30;;;2.88;;
46777;SDS011;32536;47.128;8.746;2023-06-22T13:49:54;11.15;;;4.78;;
46777;SDS011;32536;47.128;8.746;2023-06-22T13:52:21;9.00;;;3.72;;
46777;SDS011;32536;47.128;8.746;2023-06-22T13:54:47;10.35;;;3.25;;
46777;SDS011;32536;47.128;8.746;2023-06-22T13:57:14;9.32;;;2.78;;
46777;SDS011;32536;47.128;8.746;2023-06-22T13:59:41;7.50;;;2.50;;
46777;SDS011;32536;47.128;8.746;2023-06-22T14:02:08;9.38;;;2.67;;
46777;SDS011;32536;47.128;8.746;2023-06-22T14:04:34;6.75;;;2.10;;
46777;SDS011;32536;47.128;8.746;2023-06-22T14:07:01;9.13;;;2.83;;
46777;SDS011;32536;47.128;8.746;2023-06-22T14:09:28;5.22;;;2.72;;
46777;SDS011;32536;47.128;8.746;2023-06-22T14:11:55;7.25;;;3.63;;
46777;SDS011;32536;47.128;8.746;2023-06-22T14:14:21;9.43;;;2.85;;
46777;SDS011;32536;47.128;8.746;2023-06-22T14:16:48;6.03;;;2.45;;
46777;SDS011;32536;47.128;8.746;2023-06-22T14:19:18;10.02;;;2.13;;
46777;SDS011;32536;47.128;8.746;2023-06-22T14:21:45;9.15;;;3.08;;
46777;SDS011;32536;47.128;8.746;2023-06-22T14:24:11;7.90;;;2.30;;
46777;SDS011;32536;47.128;8.746;2023-06-22T14:26:38;5.90;;;2.10;;
46777;SDS011;32536;47.128;8.746;2023-06-22T14:29:05;7.10;;;2.58;;
46777;SDS011;32536;47.128;8.746;2023-06-22T14:31:31;9.77;;;2.33;;
46777;SDS011;32536;47.128;8.746;2023-06-22T14:33:58;6.60;;;2.40;;
46777;SDS011;32536;47.128;8.746;2023-06-22T14:36:25;7.15;;;2.25;;
46777;SDS011;32536;47.128;8.746;2023-06-22T14:38:52;7.63;;;2.30;;
46777;SDS011;32536;47.128;8.746;2023-06-22T14:41:19;8.23;;;3.15;;
46777;SDS011;32536;47.128;8.746;2023-06-22T14:43:46;5.43;;;1.90;;
46777;SDS011;32536;47.128;8.746;2023-06-22T14:46:15;7.45;;;1.73;;
46777;SDS011;32536;47.128;8.746;2023-06-22T14:48:44;6.00;;;2.10;;
46777;SDS011;32536;47.128;8.746;2023-06-22T14:51:11;6.15;;;1.80;;
46777;SDS011;32536;47.128;8.746;2023-06-22T14:53:39;3.28;;;1.00;;
46777;SDS011;32536;47.128;8.746;2023-06-22T14:56:06;3.30;;;1.27;;
46777;SDS011;32536;47.128;8.746;2023-06-22T14:58:33;3.00;;;1.17;;
46777;SDS011;32536;47.128;8.746;2023-06-22T15:01:01;7.72;;;0.95;;
46777;SDS011;32536;47.128;8.746;2023-06-22T15:03:33;3.10;;;1.08;;
46777;SDS011;32536;47.128;8.746;2023-06-22T15:06:02;5.80;;;2.03;;
46777;SDS011;32536;47.128;8.746;2023-06-22T15:08:29;6.72;;;2.08;;
46777;SDS011;32536;47.128;8.746;2023-06-22T15:10:59;7.40;;;1.50;;
46777;SDS011;32536;47.128;8.746;2023-06-22T15:15:57;4.40;;;1.35;;